createdAt,value
2023-05-04T00:00:51.537Z,13.34
2023-05-04T00:01:53.126Z,13.35
2023-05-04T00:02:54.808Z,13.36
2023-05-04T00:03:56.660Z,13.30
2023-05-04T00:04:58.565Z,13.25
2023-05-04T00:06:00.534Z,13.26
2023-05-04T00:07:02.189Z,13.29
2023-05-04T00:08:03.845Z,13.22
2023-05-04T00:09:06.777Z,13.12
2023-05-04T00:10:09.465Z,13.15
2023-05-04T00:11:11.523Z,13.16
2023-05-04T00:12:13.112Z,13.16
2023-05-04T00:13:14.731Z,13.18
2023-05-04T00:14:16.409Z,13.16
2023-05-04T00:15:17.991Z,13.07
2023-05-04T00:16:19.653Z,13.11
2023-05-04T00:17:21.329Z,13.09
2023-05-04T00:18:22.991Z,13.11
2023-05-04T00:19:24.559Z,13.08
2023-05-04T00:20:26.233Z,13.07
2023-05-04T00:21:27.973Z,13.12
2023-05-04T00:22:29.636Z,13.12
2023-05-04T00:23:31.221Z,13.12
2023-05-04T00:24:32.808Z,13.14
2023-05-04T00:25:34.403Z,13.07
2023-05-04T00:26:36.250Z,13.08
2023-05-04T00:27:37.984Z,13.14
2023-05-04T00:28:39.637Z,13.09
2023-05-04T00:29:41.226Z,13.15
2023-05-04T00:30:42.832Z,13.04
2023-05-04T00:31:45.117Z,12.98
2023-05-04T00:32:46.806Z,13.01
2023-05-04T00:33:48.445Z,13.01
2023-05-04T00:34:50.051Z,13.02
2023-05-04T00:35:51.792Z,12.88
2023-05-04T00:36:53.377Z,12.92
2023-05-04T00:37:55.004Z,12.94
2023-05-04T00:38:56.606Z,12.95
2023-05-04T00:39:58.275Z,12.99
2023-05-04T00:40:59.944Z,12.98
2023-05-04T00:42:02.033Z,12.97
2023-05-04T00:43:03.585Z,12.95
2023-05-04T00:44:05.992Z,12.91
2023-05-04T00:45:08.057Z,12.91
2023-05-04T00:46:10.678Z,12.92
2023-05-04T00:47:12.418Z,12.95
2023-05-04T00:48:14.051Z,12.91
2023-05-04T00:49:15.852Z,12.89
2023-05-04T00:50:17.481Z,12.85
2023-05-04T00:51:20.742Z,12.91
2023-05-04T00:52:22.357Z,12.89
2023-05-04T00:53:24.174Z,12.89
2023-05-04T00:54:25.996Z,12.95
2023-05-04T00:55:27.584Z,12.91
2023-05-04T00:56:29.231Z,12.92
2023-05-04T00:57:30.858Z,12.92
2023-05-04T00:58:32.792Z,12.92
2023-05-04T00:59:34.533Z,12.88
2023-05-04T01:00:36.446Z,12.92
2023-05-04T01:01:38.208Z,12.92
2023-05-04T01:02:41.089Z,12.94
2023-05-04T01:03:42.848Z,12.91
2023-05-04T01:04:44.428Z,12.92
2023-05-04T01:06:02.148Z,12.92
2023-05-04T01:07:10.581Z,12.91
2023-05-04T01:08:17.665Z,12.95
2023-05-04T01:09:21.941Z,12.92
2023-05-04T01:10:47.533Z,12.94
2023-05-04T01:12:08.283Z,12.94
2023-05-04T01:13:13.035Z,12.92
2023-05-04T01:14:14.759Z,12.97
2023-05-04T01:15:16.497Z,12.98
2023-05-04T01:16:18.137Z,12.92
2023-05-04T01:17:20.313Z,12.87
2023-05-04T01:18:23.383Z,12.84
2023-05-04T01:19:27.619Z,12.92
2023-05-04T01:20:30.121Z,12.95
2023-05-04T01:21:31.952Z,12.88
2023-05-04T01:22:33.653Z,12.92
2023-05-04T01:23:35.422Z,12.87
2023-05-04T01:24:37.014Z,12.91
2023-05-04T01:25:57.715Z,12.88
2023-05-04T01:27:26.668Z,12.85
2023-05-04T01:28:43.914Z,12.87
2023-05-04T01:29:45.969Z,12.87
2023-05-04T01:30:49.839Z,12.78
2023-05-04T01:31:51.467Z,12.81
2023-05-04T01:32:53.180Z,12.78
2023-05-04T01:33:55.158Z,12.69
2023-05-04T01:34:56.743Z,12.68
2023-05-04T01:35:59.115Z,12.69
2023-05-04T01:37:00.699Z,12.71
2023-05-04T01:38:02.501Z,12.77
2023-05-04T01:39:04.309Z,12.80
2023-05-04T01:40:06.549Z,12.81
2023-05-04T01:41:08.320Z,12.80
2023-05-04T01:42:09.872Z,12.87
2023-05-04T01:43:11.468Z,12.81
2023-05-04T01:44:13.297Z,12.87
2023-05-04T01:45:14.918Z,12.89
2023-05-04T01:46:16.558Z,12.85
2023-05-04T01:47:18.233Z,12.81
2023-05-04T01:48:20.817Z,12.78
2023-05-04T01:49:22.709Z,12.76
2023-05-04T01:50:24.341Z,12.74
2023-05-04T01:51:25.972Z,12.77
2023-05-04T01:52:27.566Z,12.77
2023-05-04T01:53:30.221Z,12.77
2023-05-04T01:54:32.103Z,12.80
2023-05-04T01:55:33.730Z,12.80
2023-05-04T01:56:35.718Z,12.73
2023-05-04T01:57:37.328Z,12.73
2023-05-04T01:58:38.909Z,12.74
2023-05-04T01:59:41.478Z,12.77
2023-05-04T02:00:43.441Z,12.77
2023-05-04T02:01:45.104Z,12.78
2023-05-04T02:02:46.792Z,12.80
2023-05-04T02:03:48.654Z,12.85
2023-05-04T02:04:50.343Z,12.83
2023-05-04T02:05:53.209Z,12.81
2023-05-04T02:06:54.844Z,12.84
2023-05-04T02:07:56.503Z,12.81
2023-05-04T02:08:58.081Z,12.78
2023-05-04T02:09:59.671Z,12.74
2023-05-04T02:11:02.174Z,12.69
2023-05-04T02:12:04.287Z,12.68
2023-05-04T02:13:05.866Z,12.69
2023-05-04T02:14:07.484Z,12.68
2023-05-04T02:15:09.508Z,12.67
2023-05-04T02:16:11.586Z,12.73
2023-05-04T02:17:13.446Z,12.71
2023-05-04T02:18:15.026Z,12.65
2023-05-04T02:19:17.184Z,12.67
2023-05-04T02:20:18.843Z,12.64
2023-05-04T02:21:20.945Z,12.65
2023-05-04T02:22:22.522Z,12.63
2023-05-04T02:23:24.220Z,12.64
2023-05-04T02:24:26.304Z,12.65
2023-05-04T02:25:28.473Z,12.65
2023-05-04T02:26:30.422Z,12.67
2023-05-04T02:27:32.091Z,12.68
2023-05-04T02:28:33.653Z,12.68
2023-05-04T02:29:35.352Z,12.67
2023-05-04T02:30:36.950Z,12.67
2023-05-04T02:31:39.751Z,12.61
2023-05-04T02:32:41.616Z,12.65
2023-05-04T02:33:43.212Z,12.63
2023-05-04T02:34:45.390Z,12.65
2023-05-04T02:35:47.008Z,12.57
2023-05-04T02:36:49.139Z,12.61
2023-05-04T02:37:50.790Z,12.64
2023-05-04T02:38:52.443Z,12.69
2023-05-04T02:39:54.033Z,12.71
2023-05-04T02:40:55.814Z,12.78
2023-05-04T02:41:58.518Z,12.78
2023-05-04T02:43:00.146Z,12.83
2023-05-04T02:44:01.717Z,12.83
2023-05-04T02:45:04.138Z,12.85
2023-05-04T02:46:05.784Z,12.81
2023-05-04T02:47:07.409Z,12.81
2023-05-04T02:48:09.028Z,12.78
2023-05-04T02:49:11.436Z,12.73
2023-05-04T02:50:13.596Z,12.73
2023-05-04T02:51:15.180Z,12.65
2023-05-04T02:52:16.767Z,12.76
2023-05-04T02:53:18.340Z,12.77
2023-05-04T02:54:21.088Z,12.76
2023-05-04T02:55:22.685Z,12.65
2023-05-04T02:56:24.623Z,12.63
2023-05-04T02:57:26.217Z,12.65
2023-05-04T02:58:28.583Z,12.71
2023-05-04T02:59:30.170Z,12.68
2023-05-04T03:00:31.763Z,12.67
2023-05-04T03:01:34.862Z,12.61
2023-05-04T03:02:36.801Z,12.64
2023-05-04T03:03:38.470Z,12.67
2023-05-04T03:04:40.102Z,12.68
2023-05-04T03:05:42.251Z,12.65
2023-05-04T03:06:43.843Z,12.58
2023-05-04T03:07:45.600Z,12.61
2023-05-04T03:08:47.361Z,12.67
2023-05-04T03:09:48.927Z,12.69
2023-05-04T03:10:50.520Z,12.61
2023-05-04T03:11:52.075Z,12.58
2023-05-04T03:12:54.886Z,12.53
2023-05-04T03:13:56.506Z,12.60
2023-05-04T03:14:58.135Z,12.67
2023-05-04T03:15:59.725Z,12.61
2023-05-04T03:17:01.359Z,12.65
2023-05-04T03:18:04.316Z,12.61
2023-05-04T03:19:05.934Z,12.58
2023-05-04T03:20:08.303Z,12.58
2023-05-04T03:21:10.089Z,12.61
2023-05-04T03:22:11.785Z,12.60
2023-05-04T03:23:13.658Z,12.56
2023-05-04T03:24:17.714Z,12.51
2023-05-04T03:25:19.444Z,12.54
2023-05-04T03:26:21.460Z,12.56
2023-05-04T03:27:23.140Z,12.54
2023-05-04T03:28:24.821Z,12.54
2023-05-04T03:29:26.461Z,12.60
2023-05-04T03:30:28.056Z,12.64
2023-05-04T03:31:29.668Z,12.64
2023-05-04T03:32:31.465Z,12.64
2023-05-04T03:33:33.173Z,12.68
2023-05-04T03:34:34.733Z,12.63
2023-05-04T03:35:36.352Z,12.61
2023-05-04T03:36:38.864Z,12.54
2023-05-04T03:37:40.745Z,12.57
2023-05-04T03:38:42.340Z,12.51
2023-05-04T03:39:44.018Z,12.51
2023-05-04T03:40:45.948Z,12.43
2023-05-04T03:41:47.526Z,12.46
2023-05-04T03:42:49.356Z,12.40
2023-05-04T03:43:51.292Z,12.36
2023-05-04T03:44:53.070Z,12.40
2023-05-04T03:45:54.863Z,12.46
2023-05-04T03:46:56.436Z,12.50
2023-05-04T03:47:58.129Z,12.43
2023-05-04T03:48:59.756Z,12.44
2023-05-04T03:50:02.712Z,12.43
2023-05-04T03:51:04.639Z,12.41
2023-05-04T03:52:06.737Z,12.46
2023-05-04T03:53:08.347Z,12.40
2023-05-04T03:54:10.102Z,12.43
2023-05-04T03:55:11.692Z,12.46
2023-05-04T03:56:13.264Z,12.37
2023-05-04T03:57:14.862Z,12.44
2023-05-04T03:58:16.580Z,12.40
2023-05-04T03:59:19.406Z,12.44
2023-05-04T04:00:21.080Z,12.50
2023-05-04T04:01:22.727Z,12.51
2023-05-04T04:02:24.502Z,12.48
2023-05-04T04:03:26.268Z,12.53
2023-05-04T04:04:28.897Z,12.56
2023-05-04T04:05:31.155Z,12.58
2023-05-04T04:06:32.742Z,12.57
2023-05-04T04:07:34.363Z,12.60
2023-05-04T04:08:36.162Z,12.64
2023-05-04T04:09:37.789Z,12.69
2023-05-04T04:10:40.089Z,12.69
2023-05-04T04:11:41.758Z,12.73
2023-05-04T04:12:43.851Z,12.76
2023-05-04T04:13:45.528Z,12.80
2023-05-04T04:14:48.569Z,12.78
2023-05-04T04:15:50.633Z,12.80
2023-05-04T04:16:52.309Z,12.81
2023-05-04T04:17:54.062Z,12.81
2023-05-04T04:18:55.779Z,12.85
2023-05-04T04:19:57.344Z,12.89
2023-05-04T04:20:58.920Z,12.91
2023-05-04T04:22:00.779Z,12.89
2023-05-04T04:23:02.505Z,12.85
2023-05-04T04:24:04.477Z,12.89
2023-05-04T04:25:06.549Z,12.91
2023-05-04T04:26:08.164Z,12.92
2023-05-04T04:27:09.754Z,12.85
2023-05-04T04:28:11.403Z,12.95
2023-05-04T04:29:13.865Z,12.98
2023-05-04T04:30:15.783Z,12.92
2023-05-04T04:31:18.606Z,12.97
2023-05-04T04:32:21.259Z,12.91
2023-05-04T04:33:22.897Z,12.88
2023-05-04T04:34:24.528Z,12.83
2023-05-04T04:35:27.489Z,12.87
2023-05-04T04:36:29.638Z,12.87
2023-05-04T04:37:31.230Z,12.91
2023-05-04T04:38:32.851Z,12.95
2023-05-04T04:39:34.480Z,12.99
2023-05-04T04:40:36.377Z,13.05
2023-05-04T04:41:38.483Z,13.05
2023-05-04T04:42:40.065Z,13.07
2023-05-04T04:43:41.686Z,13.14
2023-05-04T04:44:43.293Z,13.23
2023-05-04T04:45:45.338Z,13.16
2023-05-04T04:46:47.513Z,13.26
2023-05-04T04:47:49.340Z,13.25
2023-05-04T04:48:53.540Z,13.28
2023-05-04T04:49:55.136Z,13.30
2023-05-04T04:50:57.361Z,13.34
2023-05-04T04:51:59.033Z,13.36
2023-05-04T04:53:00.670Z,13.36
2023-05-04T04:54:02.259Z,13.38
2023-05-04T04:55:07.779Z,13.46
2023-05-04T04:56:10.139Z,13.43
2023-05-04T04:57:11.723Z,13.48
2023-05-04T04:58:13.438Z,13.49
2023-05-04T04:59:15.088Z,13.50
2023-05-04T05:00:17.292Z,13.52
2023-05-04T05:01:19.016Z,13.59
2023-05-04T05:02:20.803Z,13.60
2023-05-04T05:03:22.396Z,13.63
2023-05-04T05:04:25.270Z,13.66
2023-05-04T05:05:27.765Z,13.67
2023-05-04T05:06:30.483Z,13.67
2023-05-04T05:07:32.777Z,13.76
2023-05-04T05:08:34.968Z,13.76
2023-05-04T05:09:37.138Z,13.80
2023-05-04T05:10:38.773Z,13.80
2023-05-04T05:11:40.460Z,13.81
2023-05-04T05:12:42.086Z,13.87
2023-05-04T05:13:43.727Z,13.83
2023-05-04T05:14:47.319Z,13.94
2023-05-04T05:15:48.951Z,13.90
2023-05-04T05:16:50.586Z,14.00
2023-05-04T05:17:52.200Z,14.03
2023-05-04T05:18:53.939Z,14.09
2023-05-04T05:19:55.599Z,14.07
2023-05-04T05:20:57.847Z,14.17
2023-05-04T05:21:59.485Z,14.14
2023-05-04T05:23:01.089Z,14.13
2023-05-04T05:24:03.015Z,14.24
2023-05-04T05:25:05.898Z,14.23
2023-05-04T05:26:07.551Z,14.34
2023-05-04T05:27:09.280Z,14.37
2023-05-04T05:28:10.941Z,14.40
2023-05-04T05:29:12.599Z,14.32
2023-05-04T05:30:14.662Z,14.46
2023-05-04T05:31:16.611Z,14.62
2023-05-04T05:32:18.296Z,14.83
2023-05-04T05:33:19.961Z,14.95
2023-05-04T05:34:21.621Z,15.06
2023-05-04T05:35:23.222Z,15.20
2023-05-04T05:36:24.884Z,15.25
2023-05-04T05:37:26.530Z,15.20
2023-05-04T05:38:28.425Z,15.20
2023-05-04T05:39:30.026Z,15.19
2023-05-04T05:40:32.086Z,15.15
2023-05-04T05:41:34.503Z,15.03
2023-05-04T05:42:36.161Z,15.07
2023-05-04T05:43:38.766Z,15.16
2023-05-04T05:44:40.477Z,15.18
2023-05-04T05:45:42.125Z,15.02
2023-05-04T05:46:43.810Z,15.02
2023-05-04T05:47:45.604Z,15.06
2023-05-04T05:48:47.241Z,15.13
2023-05-04T05:49:49.135Z,15.03
2023-05-04T05:50:50.750Z,15.10
2023-05-04T05:51:52.338Z,15.12
2023-05-04T05:52:54.040Z,15.05
2023-05-04T05:53:55.629Z,15.15
2023-05-04T05:54:57.227Z,15.18
2023-05-04T05:55:59.241Z,15.26
2023-05-04T05:57:01.826Z,15.33
2023-05-04T05:58:04.055Z,15.37
2023-05-04T05:59:06.291Z,15.42
2023-05-04T06:00:09.078Z,15.43
2023-05-04T06:01:10.664Z,15.53
2023-05-04T06:02:14.880Z,15.57
2023-05-04T06:03:16.687Z,15.60
2023-05-04T06:04:18.394Z,15.61
2023-05-04T06:05:20.326Z,15.63
2023-05-04T06:06:22.181Z,15.67
2023-05-04T06:07:23.845Z,15.71
2023-05-04T06:08:25.442Z,15.71
2023-05-04T06:09:27.059Z,15.70
2023-05-04T06:10:28.768Z,15.81
2023-05-04T06:11:31.890Z,15.93
2023-05-04T06:12:33.547Z,15.87
2023-05-04T06:13:35.250Z,15.93
2023-05-04T06:14:36.873Z,16.08
2023-05-04T06:15:38.464Z,16.09
2023-05-04T06:16:40.295Z,16.30
2023-05-04T06:17:42.390Z,16.41
2023-05-04T06:18:43.993Z,16.48
2023-05-04T06:19:46.815Z,16.60
2023-05-04T06:20:49.681Z,16.63
2023-05-04T06:21:51.387Z,16.72
2023-05-04T06:22:53.024Z,16.68
2023-05-04T06:23:54.630Z,16.66
2023-05-04T06:25:01.531Z,16.70
2023-05-04T06:26:08.589Z,16.79
2023-05-04T06:27:10.204Z,16.76
2023-05-04T06:28:11.866Z,16.75
2023-05-04T06:29:13.468Z,16.68
2023-05-04T06:30:15.917Z,16.59
2023-05-04T06:31:18.458Z,16.60
2023-05-04T06:32:20.182Z,16.68
2023-05-04T06:33:21.864Z,16.56
2023-05-04T06:34:23.482Z,16.62
2023-05-04T06:35:25.765Z,16.70
2023-05-04T06:36:27.424Z,16.75
2023-05-04T06:37:29.044Z,16.72
2023-05-04T06:38:30.640Z,16.68
2023-05-04T06:39:32.356Z,16.80
2023-05-04T06:40:33.928Z,16.70
2023-05-04T06:41:36.085Z,16.70
2023-05-04T06:42:37.710Z,16.60
2023-05-04T06:43:42.156Z,16.55
2023-05-04T06:44:43.809Z,16.55
2023-05-04T06:45:45.493Z,16.47
2023-05-04T06:46:47.108Z,16.53
2023-05-04T06:47:48.707Z,16.49
2023-05-04T06:48:50.406Z,16.51
2023-05-04T06:49:51.992Z,16.52
2023-05-04T06:50:53.874Z,16.53
2023-05-04T06:51:55.474Z,16.62
2023-05-04T06:53:04.434Z,16.59
2023-05-04T06:54:06.314Z,16.63
2023-05-04T06:55:08.212Z,16.72
2023-05-04T06:56:09.833Z,16.87
2023-05-04T06:57:11.464Z,17.09
2023-05-04T06:58:13.086Z,17.13
2023-05-04T06:59:14.819Z,17.19
2023-05-04T07:00:16.545Z,17.23
2023-05-04T07:01:18.628Z,17.31
2023-05-04T07:02:20.292Z,17.34
2023-05-04T07:03:22.250Z,17.47
2023-05-04T07:04:24.007Z,17.20
2023-05-04T07:05:26.107Z,17.20
2023-05-04T07:06:28.644Z,17.38
2023-05-04T07:07:30.403Z,17.33
2023-05-04T07:08:33.255Z,17.43
2023-05-04T07:09:35.164Z,17.52
2023-05-04T07:10:37.840Z,17.54
2023-05-04T07:11:39.450Z,17.58
2023-05-04T07:12:41.738Z,17.60
2023-05-04T07:13:43.423Z,17.47
2023-05-04T07:14:45.352Z,17.44
2023-05-04T07:15:46.952Z,17.41
2023-05-04T07:16:48.722Z,17.48
2023-05-04T07:17:50.480Z,17.52
2023-05-04T07:18:52.216Z,17.55
2023-05-04T07:19:54.745Z,17.48
2023-05-04T07:21:06.041Z,17.54
2023-05-04T07:22:18.454Z,17.67
2023-05-04T07:23:20.119Z,17.84
2023-05-04T07:24:21.762Z,17.98
2023-05-04T07:25:27.160Z,18.09
2023-05-04T07:26:28.740Z,18.10
2023-05-04T07:27:30.434Z,18.05
2023-05-04T07:28:32.747Z,18.02
2023-05-04T07:29:34.976Z,17.92
2023-05-04T07:30:36.566Z,17.85
2023-05-04T07:31:38.513Z,17.82
2023-05-04T07:32:40.286Z,17.94
2023-05-04T07:33:42.335Z,17.85
2023-05-04T07:34:46.264Z,17.96
2023-05-04T07:35:48.119Z,18.02
2023-05-04T07:36:49.712Z,18.10
2023-05-04T07:37:51.742Z,18.21
2023-05-04T07:38:53.883Z,18.22
2023-05-04T07:39:55.686Z,18.22
2023-05-04T07:40:57.333Z,18.33
2023-05-04T07:41:58.932Z,18.26
2023-05-04T07:43:00.620Z,18.25
2023-05-04T07:44:05.657Z,18.45
2023-05-04T07:45:09.778Z,18.57
2023-05-04T07:46:11.786Z,18.60
2023-05-04T07:47:14.530Z,18.60
2023-05-04T07:48:18.076Z,18.73
2023-05-04T07:49:19.819Z,18.77
2023-05-04T07:50:21.460Z,18.78
2023-05-04T07:51:23.057Z,18.81
2023-05-04T07:52:24.724Z,18.97
2023-05-04T07:53:26.838Z,18.98
2023-05-04T07:54:28.658Z,19.01
2023-05-04T07:55:31.017Z,19.07
2023-05-04T07:56:32.634Z,19.04
2023-05-04T07:57:35.901Z,19.01
2023-05-04T07:58:37.535Z,19.00
2023-05-04T07:59:39.113Z,19.04
2023-05-04T08:00:40.765Z,19.10
2023-05-04T08:01:44.143Z,19.18
2023-05-04T08:02:46.155Z,18.84
2023-05-04T08:03:48.582Z,18.86
2023-05-04T08:04:50.172Z,19.01
2023-05-04T08:05:52.211Z,19.11
2023-05-04T08:06:54.491Z,19.10
2023-05-04T08:07:56.377Z,19.19
2023-05-04T08:08:58.041Z,19.12
2023-05-04T08:09:59.708Z,19.04
2023-05-04T08:11:15.794Z,19.12
2023-05-04T08:12:20.655Z,19.14
2023-05-04T08:13:22.340Z,19.24
2023-05-04T08:14:23.947Z,19.28
2023-05-04T08:15:25.753Z,19.28
2023-05-04T08:16:29.226Z,19.29
2023-05-04T08:17:30.953Z,19.04
2023-05-04T08:18:32.674Z,19.06
2023-05-04T08:19:34.320Z,19.00
2023-05-04T08:20:35.923Z,19.17
2023-05-04T08:21:37.536Z,19.28
2023-05-04T08:22:39.261Z,19.34
2023-05-04T08:23:41.001Z,19.36
2023-05-04T08:24:42.628Z,19.47
2023-05-04T08:25:44.444Z,19.48
2023-05-04T08:26:52.569Z,19.45
2023-05-04T08:28:01.550Z,19.32
2023-05-04T08:29:07.670Z,19.08
2023-05-04T08:30:10.170Z,19.10
2023-05-04T08:31:15.504Z,19.11
2023-05-04T08:32:17.555Z,19.07
2023-05-04T08:33:19.201Z,19.04
2023-05-04T08:34:21.302Z,19.03
2023-05-04T08:35:27.888Z,19.04
2023-05-04T08:36:29.826Z,19.12
2023-05-04T08:37:31.437Z,19.25
2023-05-04T08:38:33.060Z,19.31
2023-05-04T08:39:34.809Z,19.17
2023-05-04T08:40:36.455Z,19.29
2023-05-04T08:41:44.431Z,19.42
2023-05-04T08:42:50.458Z,19.45
2023-05-04T08:43:52.212Z,19.49
2023-05-04T08:44:53.862Z,19.47
2023-05-04T08:45:55.675Z,19.42
2023-05-04T08:46:57.409Z,19.48
2023-05-04T08:47:59.051Z,19.48
2023-05-04T08:49:00.682Z,19.55
2023-05-04T08:50:02.611Z,19.48
2023-05-04T08:51:06.723Z,19.51
2023-05-04T08:52:08.744Z,19.42
2023-05-04T08:53:12.123Z,19.41
2023-05-04T08:54:13.696Z,19.41
2023-05-04T08:55:17.133Z,19.47
2023-05-04T08:56:19.101Z,19.18
2023-05-04T08:57:22.251Z,19.32
2023-05-04T08:58:23.840Z,19.36
2023-05-04T08:59:25.539Z,19.52
2023-05-04T09:00:27.292Z,19.65
2023-05-04T09:01:29.858Z,19.72
2023-05-04T09:02:31.779Z,19.83
2023-05-04T09:03:33.522Z,19.79
2023-05-04T09:04:35.183Z,19.86
2023-05-04T09:05:38.488Z,19.89
2023-05-04T09:06:40.153Z,19.99
2023-05-04T09:07:41.797Z,19.99
2023-05-04T09:08:43.476Z,19.94
2023-05-04T09:09:45.151Z,19.93
2023-05-04T09:10:46.890Z,19.86
2023-05-04T09:11:48.486Z,19.87
2023-05-04T09:12:50.660Z,19.87
2023-05-04T09:13:52.386Z,19.93
2023-05-04T09:14:53.998Z,19.94
2023-05-04T09:15:56.004Z,19.89
2023-05-04T09:16:57.735Z,19.93
2023-05-04T09:18:01.472Z,19.72
2023-05-04T09:19:04.665Z,19.82
2023-05-04T09:20:07.051Z,19.86
2023-05-04T09:21:08.869Z,19.90
2023-05-04T09:22:17.507Z,19.94
2023-05-04T09:23:19.858Z,19.99
2023-05-04T09:24:30.875Z,20.00
2023-05-04T09:25:33.008Z,19.76
2023-05-04T09:26:35.023Z,19.83
2023-05-04T09:27:36.970Z,19.65
2023-05-04T09:28:39.379Z,19.55
2023-05-04T09:29:42.042Z,19.59
2023-05-04T09:30:44.020Z,19.63
2023-05-04T09:31:47.328Z,19.62
2023-05-04T09:32:49.704Z,19.58
2023-05-04T09:33:53.357Z,19.47
2023-05-04T09:34:55.351Z,19.52
2023-05-04T09:35:58.821Z,19.57
2023-05-04T09:37:02.001Z,19.61
2023-05-04T09:38:04.736Z,19.62
2023-05-04T09:39:12.741Z,19.65
2023-05-04T09:40:14.706Z,19.75
2023-05-04T09:41:16.400Z,19.85
2023-05-04T09:42:18.882Z,19.83
2023-05-04T09:43:20.514Z,19.87
2023-05-04T09:44:23.057Z,19.80
2023-05-04T09:45:24.742Z,19.83
2023-05-04T09:46:26.400Z,19.80
2023-05-04T09:47:37.812Z,19.78
2023-05-04T09:48:39.400Z,19.69
2023-05-04T09:49:41.057Z,19.72
2023-05-04T09:50:56.643Z,19.73
2023-05-04T09:52:03.002Z,19.66
2023-05-04T09:53:04.757Z,19.63
2023-05-04T09:54:06.409Z,19.61
2023-05-04T09:55:08.691Z,19.59
2023-05-04T09:56:14.787Z,19.69
2023-05-04T09:57:16.505Z,19.70
2023-05-04T09:58:18.593Z,19.90
2023-05-04T09:59:20.304Z,20.01
2023-05-04T10:00:22.105Z,20.19
2023-05-04T10:01:24.166Z,20.36
2023-05-04T10:02:25.875Z,20.16
2023-05-04T10:03:28.228Z,20.17
2023-05-04T10:04:29.873Z,20.31
2023-05-04T10:05:31.594Z,20.33
2023-05-04T10:06:33.449Z,20.39
2023-05-04T10:07:35.247Z,20.44
2023-05-04T10:08:37.426Z,20.51
2023-05-04T10:09:39.001Z,20.63
2023-05-04T10:10:40.697Z,20.67
2023-05-04T10:11:42.601Z,20.43
2023-05-04T10:12:45.060Z,20.47
2023-05-04T10:13:47.993Z,20.58
2023-05-04T10:14:49.592Z,20.29
2023-05-04T10:15:53.975Z,20.31
2023-05-04T10:16:57.533Z,20.05
2023-05-04T10:18:07.949Z,19.87
2023-05-04T10:19:19.324Z,20.06
2023-05-04T10:20:37.614Z,20.16
2023-05-04T10:21:44.354Z,20.20
2023-05-04T10:22:54.847Z,20.06
2023-05-04T10:24:23.282Z,20.14
2023-05-04T10:25:28.119Z,20.30
2023-05-04T10:26:29.986Z,20.51
2023-05-04T10:27:41.186Z,20.63
2023-05-04T10:29:02.273Z,20.68
2023-05-04T10:30:05.043Z,20.58
2023-05-04T10:31:07.508Z,20.57
2023-05-04T10:32:22.425Z,20.68
2023-05-04T10:33:37.352Z,20.82
2023-05-04T10:34:39.003Z,20.85
2023-05-04T10:35:55.808Z,20.81
2023-05-04T10:36:58.935Z,20.87
2023-05-04T10:38:00.905Z,20.91
2023-05-04T10:39:02.513Z,21.01
2023-05-04T10:40:11.009Z,21.05
2023-05-04T10:41:19.281Z,20.99
2023-05-04T10:42:21.170Z,21.16
2023-05-04T10:43:24.234Z,21.35
2023-05-04T10:44:27.078Z,21.22
2023-05-04T10:45:37.304Z,21.38
2023-05-04T10:46:39.062Z,21.16
2023-05-04T10:47:41.557Z,21.05
2023-05-04T10:48:43.229Z,21.02
2023-05-04T10:49:44.826Z,21.11
2023-05-04T10:50:49.904Z,20.88
2023-05-04T10:52:04.612Z,20.90
2023-05-04T10:53:06.324Z,20.68
2023-05-04T10:54:17.485Z,20.68
2023-05-04T10:55:19.644Z,20.63
2023-05-04T10:56:25.277Z,20.51
2023-05-04T10:57:28.542Z,20.45
2023-05-04T10:58:30.268Z,20.52
2023-05-04T10:59:33.901Z,20.48
2023-05-04T11:00:38.010Z,20.17
2023-05-04T11:01:45.599Z,19.87
2023-05-04T11:02:48.294Z,19.89
2023-05-04T11:03:49.981Z,19.69
2023-05-04T11:05:02.092Z,19.73
2023-05-04T11:06:04.285Z,19.65
2023-05-04T11:07:06.398Z,19.61
2023-05-04T11:08:15.728Z,19.72
2023-05-04T11:09:17.612Z,19.70
2023-05-04T11:10:26.542Z,19.62
2023-05-04T11:11:28.179Z,19.47
2023-05-04T11:12:30.594Z,19.62
2023-05-04T11:13:34.083Z,19.59
2023-05-04T11:14:42.532Z,19.62
2023-05-04T11:15:52.072Z,19.61
2023-05-04T11:18:46.321Z,19.75
2023-05-04T11:19:51.789Z,19.86
2023-05-04T11:20:53.954Z,19.89
2023-05-04T11:21:55.545Z,19.94
2023-05-04T11:22:57.200Z,19.93
2023-05-04T11:23:59.375Z,19.97
2023-05-04T11:25:01.082Z,20.00
2023-05-04T11:26:07.471Z,20.08
2023-05-04T11:27:23.546Z,20.08
2023-05-04T11:28:37.801Z,20.10
2023-05-04T11:29:39.471Z,20.12
2023-05-04T11:30:42.320Z,20.13
2023-05-04T11:31:54.038Z,20.23
2023-05-04T11:32:57.427Z,20.30
2023-05-04T11:33:59.146Z,20.37
2023-05-04T11:35:01.379Z,20.39
2023-05-04T11:36:03.703Z,20.36
2023-05-04T11:37:06.453Z,20.19
2023-05-04T11:38:08.324Z,20.24
2023-05-04T11:39:10.135Z,20.21
2023-05-04T11:40:16.579Z,20.17
2023-05-04T11:41:18.213Z,20.14
2023-05-04T11:42:19.833Z,20.26
2023-05-04T11:43:21.487Z,20.20
2023-05-04T11:44:23.180Z,20.09
2023-05-04T11:45:27.509Z,20.01
2023-05-04T11:46:29.220Z,20.09
2023-05-04T11:47:31.304Z,19.96
2023-05-04T11:48:33.320Z,19.93
2023-05-04T11:49:36.236Z,19.90
2023-05-04T11:50:37.904Z,19.92
2023-05-04T11:51:39.721Z,19.99
2023-05-04T11:52:41.710Z,20.03
2023-05-04T11:53:43.397Z,20.14
2023-05-04T11:54:55.966Z,20.03
2023-05-04T11:56:02.207Z,19.94
2023-05-04T11:57:04.148Z,19.97
2023-05-04T11:58:09.828Z,20.05
2023-05-04T11:59:11.536Z,20.08
2023-05-04T12:00:13.638Z,20.12
2023-05-04T12:01:15.923Z,20.19
2023-05-04T12:02:17.887Z,20.20
2023-05-04T12:03:39.688Z,20.30
2023-05-04T12:04:51.252Z,20.44
2023-05-04T12:05:54.151Z,20.50
2023-05-04T12:06:55.838Z,20.64
2023-05-04T12:07:57.582Z,20.72
2023-05-04T12:09:03.693Z,20.61
2023-05-04T12:10:05.684Z,20.60
2023-05-04T12:11:26.166Z,20.50
2023-05-04T12:12:35.239Z,20.61
2023-05-04T12:13:37.122Z,20.64
2023-05-04T12:14:56.950Z,20.61
2023-05-04T12:15:58.664Z,20.64
2023-05-04T12:17:03.029Z,20.50
2023-05-04T12:18:04.830Z,20.60
2023-05-04T12:19:13.340Z,20.65
2023-05-04T12:20:23.569Z,20.64
2023-05-04T12:21:25.139Z,20.64
2023-05-04T12:22:30.336Z,20.52
2023-05-04T12:23:31.946Z,20.37
2023-05-04T12:24:33.735Z,20.30
2023-05-04T12:25:41.328Z,20.21
2023-05-04T12:26:49.597Z,19.90
2023-05-04T12:27:51.258Z,19.85
2023-05-04T12:28:53.008Z,19.80
2023-05-04T12:29:54.950Z,19.69
2023-05-04T12:30:56.954Z,19.55
2023-05-04T12:31:58.526Z,19.49
2023-05-04T12:33:00.277Z,19.41
2023-05-04T12:34:02.005Z,19.41
2023-05-04T12:35:04.572Z,19.32
2023-05-04T12:36:07.107Z,19.32
2023-05-04T12:37:08.769Z,19.22
2023-05-04T12:38:10.376Z,19.25
2023-05-04T12:39:12.008Z,19.17
2023-05-04T12:40:27.239Z,19.11
2023-05-04T12:41:31.642Z,19.08
2023-05-04T12:42:33.438Z,19.08
2023-05-04T12:43:35.069Z,19.17
2023-05-04T12:44:36.756Z,19.11
2023-05-04T12:45:38.525Z,19.07
2023-05-04T12:46:40.401Z,18.98
2023-05-04T12:47:42.019Z,19.04
2023-05-04T12:48:43.792Z,18.91
2023-05-04T12:49:45.496Z,18.98
2023-05-04T12:50:48.597Z,19.07
2023-05-04T12:51:52.937Z,19.11
2023-05-04T12:52:54.596Z,19.18
2023-05-04T12:53:57.922Z,19.21
2023-05-04T12:54:59.627Z,19.27
2023-05-04T12:56:01.826Z,19.34
2023-05-04T12:57:03.529Z,19.41
2023-05-04T12:58:05.146Z,19.47
2023-05-04T12:59:06.794Z,19.57
2023-05-04T13:00:10.262Z,19.63
2023-05-04T13:01:12.045Z,19.62
2023-05-04T13:02:14.241Z,19.68
2023-05-04T13:03:18.513Z,19.66
2023-05-04T13:04:20.398Z,19.73
2023-05-04T13:05:23.367Z,19.82
2023-05-04T13:06:26.336Z,19.87
2023-05-04T13:07:28.021Z,19.90
2023-05-04T13:08:29.625Z,19.89
2023-05-04T13:09:31.617Z,19.93
2023-05-04T13:10:33.281Z,19.97
2023-05-04T13:11:35.274Z,19.99
2023-05-04T13:12:37.812Z,20.00
2023-05-04T13:13:40.331Z,19.99
2023-05-04T13:14:41.951Z,20.10
2023-05-04T13:15:44.398Z,20.12
2023-05-04T13:16:46.099Z,20.16
2023-05-04T13:17:47.808Z,20.13
2023-05-04T13:18:49.472Z,20.16
2023-05-04T13:19:51.115Z,20.12
2023-05-04T13:20:56.194Z,20.27
2023-05-04T13:21:57.881Z,20.17
2023-05-04T13:22:59.514Z,20.19
2023-05-04T13:24:01.763Z,20.21
2023-05-04T13:25:03.915Z,20.23
2023-05-04T13:26:06.535Z,20.26
2023-05-04T13:27:08.110Z,20.37
2023-05-04T13:28:09.688Z,20.37
2023-05-04T13:29:11.302Z,20.45
2023-05-04T13:30:13.334Z,20.36
2023-05-04T13:31:15.024Z,20.41
2023-05-04T13:32:16.645Z,20.47